Clarksville, Tennessee
Current Conditions -  °F | °C
As of 11:52 AM on Saturday 20 Dec 2014 (Local Time) from KCKV Reporting Station
Overcast Overcast  
Wind Chill: 38°   Ceiling: 5500
Heat Index: 38°   Visibility: 10mi
Dew Point: 28°   Wind: 3mph
Humidity: 68%   Direction: NA
Pressure: 30.27"   Gusts: NA
Location:  36.53°N, 87.36°W
Report Text: KCKV 201752Z AUTO VRB03KT 10SM OVC055 03/M02 A3027 RMK AO2 SLP256 T00331022 10039 20006 58007
Loading
Personal Weather Stations






























Interactive Weather Map New forecast layout! Learn more

10-Day Weather Forecast

Advertisements
Track Severe Weather on mobile